Flight Track Log - Related Links

Times and Time Zones

All times are in EDT time to prevent confusion due to time zone crossing. See the CJT575 flight status page for this flight to view local times or setup timezone preferences in your user account.


Time Position Orientation Groundspeed Altitude Reporting Facility
EDT Latitude Longitude Course Direction KTS MPH feet Rate Location/Type
Tue 12:30:15 AM 43.2619 -80.0712 276° West  Level FlightAware Approximate
Tue 12:31:15 AM 43.2723 -80.2113 308° West  Level FlightAware Approximate
Tue 12:32:15 AM 43.3396 -80.3292 306° West  Level FlightAware Approximate
Tue 12:33:15 AM 43.4040 -80.4517 306° West  Level FlightAware Approximate
Tue 12:34:15 AM 43.4690 -80.5737 303° West  Level FlightAware Approximate
Tue 12:35:15 AM 43.5285 -80.7004 305° West  Level FlightAware Approximate
Tue 12:36:15 AM 43.5920 -80.8243 306° West  Level FlightAware Approximate
Tue 12:37:15 AM 43.6567 -80.9465 304° West  Level FlightAware Approximate
Tue 12:38:15 AM 43.7183 -81.0725 305° West  Level FlightAware Approximate
Tue 12:39:15 AM 43.7814 -81.1972 302° West  Level FlightAware Approximate
Tue 12:40:15 AM 43.8399 -81.3259 305° West  Level FlightAware Approximate
Tue 12:41:15 AM 43.9028 -81.4510 307° West  Level FlightAware Approximate
Tue 12:42:15 AM 43.9692 -81.5717 304° West  Level FlightAware Approximate
Tue 12:43:15 AM 44.0301 -81.6990 305° West  Level FlightAware Approximate
Tue 12:44:15 AM 44.0925 -81.8250 306° West  Level FlightAware Approximate
Tue 12:45:15 AM 44.1562 -81.9492 304° West  Level FlightAware Approximate
Tue 12:46:15 AM 44.2177 -82.0751 301° West  Level FlightAware Approximate
Tue 12:47:15 AM 44.2732 -82.2042 306° West  Level FlightAware Approximate
Tue 12:48:15 AM 44.3367 -82.3273 304° West  Level FlightAware Approximate
Tue 12:49:15 AM 44.3984 -82.4545 303° West  Level FlightAware Approximate
Tue 12:50:15 AM 44.4580 -82.5826 304° West  Level FlightAware Approximate
Tue 12:51:15 AM 44.5198 -82.7100 304° West  Level FlightAware Approximate
Tue 12:52:15 AM 44.5810 -82.8380 304° West  Level FlightAware Approximate
Tue 12:53:15 AM 44.6421 -82.9663 304° West  Level FlightAware Approximate
Tue 12:54:15 AM 44.7031 -83.0949 304° West  Level FlightAware Approximate
Tue 12:55:15 AM 44.7639 -83.2238 304° West  Level FlightAware Approximate
Tue 12:56:15 AM 44.8246 -83.3529 303° West  Level FlightAware Approximate
Tue 12:57:15 AM 44.8851 -83.4824 303° West  Level FlightAware Approximate
Tue 12:58:15 AM 44.9455 -83.6120 302° West  Level FlightAware Approximate
Tue 12:59:15 AM 45.0028 -83.7444 303° West  Level FlightAware Approximate
Tue 01:00:15 AM 45.0628 -83.8747 303° West  Level FlightAware Approximate
Tue 01:01:15 AM 45.1226 -84.0053 303° West  Level FlightAware Approximate
Tue 01:02:15 AM 45.1823 -84.1362 303° West  Level FlightAware Approximate
Tue 01:03:15 AM 45.2421 -84.2679 303° West  Level FlightAware Approximate
Tue 01:04:15 AM 45.3017 -84.3998 303° West  Level FlightAware Approximate
Tue 01:05:15 AM 45.3611 -84.5320 303° West  Level FlightAware Approximate
Tue 01:06:15 AM 45.4204 -84.6645 302° West  Level FlightAware Approximate
Tue 01:07:15 AM 45.4795 -84.7973 302° West  Level FlightAware Approximate
Tue 01:08:15 AM 45.5385 -84.9303 302° West  Level FlightAware Approximate
Tue 01:09:15 AM 45.5973 -85.0636 302° West  Level FlightAware Approximate
Tue 01:10:15 AM 45.6560 -85.1972 302° West  Level FlightAware Approximate
Tue 01:11:15 AM 45.7145 -85.3311 302° West  Level FlightAware Approximate
Tue 01:12:15 AM 45.7729 -85.4653 302° West  Level FlightAware Approximate
Tue 01:13:15 AM 45.8311 -85.5997 302° West  Level FlightAware Approximate
Tue 01:14:15 AM 45.8891 -85.7344 302° West  Level FlightAware Approximate
Tue 01:15:15 AM 45.9470 -85.8695 302° West  Level FlightAware Approximate
Tue 01:16:15 AM 46.0047 -86.0048 302° West  Level FlightAware Approximate
Tue 01:17:15 AM 46.0623 -86.1403 301° West  Level FlightAware Approximate
Tue 01:18:15 AM 46.1197 -86.2762 301° West  Level FlightAware Approximate
Tue 01:19:15 AM 46.1770 -86.4123 306° West  Level FlightAware Approximate
Tue 01:20:15 AM 46.2410 -86.5417 301° West  Level FlightAware Approximate
Tue 01:21:15 AM 46.2977 -86.6782 301° West  Level FlightAware Approximate
Tue 01:22:15 AM 46.3543 -86.8150 301° West  Level FlightAware Approximate
Tue 01:23:15 AM 46.4106 -86.9520 301° West  Level FlightAware Approximate
Tue 01:24:15 AM 46.4668 -87.0894 301° West  Level FlightAware Approximate
Tue 01:25:15 AM 46.5229 -87.2270 301° West  Level FlightAware Approximate
Tue 01:26:15 AM 46.5787 -87.3649 300° West  Level FlightAware Approximate
Tue 01:27:15 AM 46.6344 -87.5031 300° West  Level FlightAware Approximate
Tue 01:28:15 AM 46.6899 -87.6416 300° West  Level FlightAware Approximate
Tue 01:29:15 AM 46.7453 -87.7804 300° West  Level FlightAware Approximate
Tue 01:30:15 AM 46.8005 -87.9195 300° West  Level FlightAware Approximate
Tue 01:31:15 AM 46.8555 -88.0588 300° West  Level FlightAware Approximate
Tue 01:32:15 AM 46.9104 -88.1984 300° West  Level FlightAware Approximate
Tue 01:33:15 AM 46.9651 -88.3383 299° West  Level FlightAware Approximate
Tue 01:34:15 AM 47.0186 -88.4798 300° West  Level FlightAware Approximate
Tue 01:35:15 AM 47.0733 -88.6212 272° West  Level FlightAware Approximate
Tue 01:36:15 AM 47.0773 -88.7654 300° West  Level FlightAware Approximate
Tue 01:37:15 AM 47.1327 -88.9063 300° West  Level FlightAware Approximate
Tue 01:38:15 AM 47.1880 -89.0475 300° West  Level FlightAware Approximate
Tue 01:39:15 AM 47.2431 -89.1890 300° West  Level FlightAware Approximate
Tue 01:40:15 AM 47.2980 -89.3308 300° West  Level FlightAware Approximate
Tue 01:41:15 AM 47.3527 -89.4729 300° West  Level FlightAware Approximate
Tue 01:42:15 AM 47.4077 -89.6163 299° West  Level FlightAware Approximate
Tue 01:43:15 AM 47.4625 -89.7601 299° West  Level FlightAware Approximate
Tue 01:44:15 AM 47.5172 -89.9042 307° West  Level FlightAware Approximate
Tue 01:45:15 AM 47.5845 -90.0360 299° West  Level FlightAware Approximate
Tue 01:46:15 AM 47.6383 -90.1811 306° West  Level FlightAware Approximate
Tue 01:47:15 AM 47.7021 -90.3140 298° West  Level FlightAware Approximate
Tue 01:48:15 AM 47.7550 -90.4601 298° West  Level FlightAware Approximate
Tue 01:49:15 AM 47.8077 -90.6065 298° West  Level FlightAware Approximate
Tue 01:50:15 AM 47.8602 -90.7532 298° West  Level FlightAware Approximate
Tue 01:51:15 AM 47.9126 -90.9003 298° West  Level FlightAware Approximate
Tue 01:52:15 AM 47.9647 -91.0476 298° West  Level FlightAware Approximate
Tue 01:53:15 AM 48.0164 -91.1945 298° West  Level FlightAware Approximate
Tue 01:54:15 AM 48.0680 -91.3418 298° West  Level FlightAware Approximate
Tue 01:55:15 AM 48.1193 -91.4894 297° West  Level FlightAware Approximate
Tue 01:56:15 AM 48.1705 -91.6372 297° West  Level FlightAware Approximate
Tue 01:57:15 AM 48.2215 -91.7854 297° West  Level FlightAware Approximate
Tue 01:58:15 AM 48.2723 -91.9338 297° West  Level FlightAware Approximate
Tue 01:59:15 AM 48.3229 -92.0826 297° West  Level FlightAware Approximate
Tue 02:00:15 AM 48.3733 -92.2316 297° West  Level FlightAware Approximate
Tue 02:01:15 AM 48.4235 -92.3809 297° West  Level FlightAware Approximate
Tue 02:02:15 AM 48.4735 -92.5305 297° West  Level FlightAware Approximate
Tue 02:03:15 AM 48.5233 -92.6806 297° West  Level FlightAware Approximate
Tue 02:04:15 AM 48.5730 -92.8310 296° West  Level FlightAware Approximate
Tue 02:05:15 AM 48.6225 -92.9817 296° West  Level FlightAware Approximate
Tue 02:06:15 AM 48.6718 -93.1326 296° West  Level FlightAware Approximate
Tue 02:07:15 AM 48.7209 -93.2839 295° West  Level FlightAware Approximate
Tue 02:08:15 AM 48.7675 -93.4369 296° West  Level FlightAware Approximate
Tue 02:09:15 AM 48.8163 -93.5886 296° West  Level FlightAware Approximate
Tue 02:10:15 AM 48.8649 -93.7407 296° West  Level FlightAware Approximate
Tue 02:11:15 AM 48.9133 -93.8931 296° West  Level FlightAware Approximate
Tue 02:12:15 AM 48.9614 -94.0458 300° West  Level FlightAware Approximate
Tue 02:13:15 AM 49.0168 -94.1920 292° West  Level FlightAware Approximate
Tue 02:14:15 AM 49.0592 -94.3488 295° West  Level FlightAware Approximate
Tue 02:15:15 AM 49.1067 -94.5024 298° West  Level FlightAware Approximate
Tue 02:16:15 AM 49.1568 -94.6488 290° West  Level FlightAware Approximate
Tue 02:17:15 AM 49.1946 -94.8088 295° West  Level FlightAware Approximate
Tue 02:18:15 AM 49.2408 -94.9635 296° West  Level FlightAware Approximate
Tue 02:19:15 AM 49.2887 -95.1174 295° West  Level FlightAware Approximate
Tue 02:20:15 AM 49.3354 -95.2723 295° West  Level FlightAware Approximate
Tue 02:21:15 AM 49.3819 -95.4275 296° West  Level FlightAware Approximate
Tue 02:22:15 AM 49.4299 -95.5817 294° West  Level FlightAware Approximate
Tue 02:23:15 AM 49.4758 -95.7376 294° West  Level FlightAware Approximate
Tue 02:24:15 AM 49.5215 -95.8938 294° West  Level FlightAware Approximate
Tue 02:25:15 AM 49.5671 -96.0502 296° West  Level FlightAware Approximate
Tue 02:26:15 AM 49.6157 -96.2046 294° West  Level FlightAware Approximate
Tue 02:27:15 AM 49.6602 -96.3620 291° West  Level FlightAware Approximate
Tue 02:28:15 AM 49.6991 -96.5202 294° West  Level FlightAware Approximate
Tue 02:29:15 AM 49.7444 -96.6774 294° West  Level FlightAware Approximate
Tue 02:30:15 AM 49.7900 -96.8330 296° West  Level FlightAware Approximate
Tue 02:31:15 AM 49.8375 -96.9876 294° West  Level FlightAware Approximate
Tue 02:32:15 AM 49.8819 -97.1442 294° West  Level FlightAware Approximate

Login

Don't have an account? Register now (free) for customized features, flight alerts, and more!